createdAt,value
2019-04-06T00:00:58.591Z,20.47
2019-04-06T00:03:26.724Z,23.13
2019-04-06T00:05:54.872Z,21.93
2019-04-06T00:08:23.002Z,21.90
2019-04-06T00:10:51.148Z,21.40
2019-04-06T00:13:19.355Z,22.30
2019-04-06T00:15:47.457Z,23.87
2019-04-06T00:18:15.592Z,23.43
2019-04-06T00:20:43.720Z,21.53
2019-04-06T00:23:11.845Z,21.50
2019-04-06T00:25:44.532Z,21.87
2019-04-06T00:28:09.822Z,21.00
2019-04-06T00:30:42.225Z,20.30
2019-04-06T00:33:15.094Z,21.20
2019-04-06T00:35:43.197Z,22.80
2019-04-06T00:38:11.320Z,22.07
2019-04-06T00:40:39.454Z,22.13
2019-04-06T00:43:07.614Z,23.73
2019-04-06T00:45:35.718Z,22.37
2019-04-06T00:48:03.913Z,22.13
2019-04-06T01:37:13.054Z,23.20
2019-04-06T01:39:41.181Z,25.17
2019-04-06T01:42:09.309Z,23.83
2019-04-06T01:44:37.497Z,24.47
2019-04-06T01:47:05.644Z,23.20
2019-04-06T01:49:33.797Z,22.93
2019-04-06T01:52:01.915Z,21.90
2019-04-06T01:54:30.126Z,24.90
2019-04-06T01:56:58.248Z,23.00
2019-04-06T01:59:26.376Z,24.17
2019-04-06T02:02:05.168Z,23.03
2019-04-06T02:04:33.395Z,25.37
2019-04-06T02:07:01.504Z,26.00
2019-04-06T02:09:29.629Z,24.10
2019-04-06T02:11:57.764Z,23.90
2019-04-06T02:14:25.902Z,24.50
2019-04-06T02:16:54.035Z,22.03
2019-04-06T02:19:22.149Z,24.00
2019-04-06T02:21:50.330Z,26.93
2019-04-06T02:24:18.487Z,25.47
2019-04-06T02:26:46.651Z,25.27
2019-04-06T02:29:14.753Z,25.03
2019-04-06T02:31:53.489Z,24.97
2019-04-06T02:34:23.274Z,24.17
2019-04-06T02:37:04.764Z,24.37
2019-04-06T02:39:37.520Z,23.50
2019-04-06T02:42:12.962Z,23.43
2019-04-06T02:44:41.095Z,25.07
2019-04-06T02:47:09.224Z,24.97
2019-04-06T02:49:37.933Z,23.10
2019-04-06T02:52:06.077Z,25.40
2019-04-06T02:54:34.380Z,23.97
2019-04-06T03:36:23.612Z,24.43
2019-04-06T03:38:51.722Z,26.83
2019-04-06T03:41:19.859Z,23.83
2019-04-06T03:43:47.996Z,24.00
2019-04-06T03:46:16.137Z,25.00
2019-04-06T03:48:44.257Z,24.47
2019-04-06T03:51:12.402Z,26.17
2019-04-06T03:53:40.522Z,25.80
2019-04-06T03:56:08.806Z,26.43
2019-04-06T03:58:37.193Z,23.90
2019-04-06T04:01:05.423Z,23.70
2019-04-06T04:03:33.516Z,25.53
2019-04-06T04:06:01.659Z,23.87
2019-04-06T04:08:29.768Z,24.23
2019-04-06T04:10:57.892Z,23.40
2019-04-06T04:13:26.060Z,24.73
2019-04-06T04:15:56.561Z,23.43
2019-04-06T04:18:24.064Z,24.60
2019-04-06T04:20:52.428Z,24.03
2019-04-06T04:23:20.548Z,23.53
2019-04-06T04:25:48.725Z,23.97
2019-04-06T04:28:16.892Z,23.20
2019-04-06T04:30:45.180Z,23.33
2019-04-06T04:33:13.317Z,25.23
2019-04-06T04:35:41.698Z,26.33
2019-04-06T04:38:09.811Z,25.53
2019-04-06T04:40:37.935Z,24.40
2019-04-06T04:43:06.050Z,23.57
2019-04-06T04:45:34.182Z,25.93
2019-04-06T04:48:02.398Z,23.90
2019-04-06T04:50:30.529Z,25.07
2019-04-06T04:52:58.801Z,25.07
2019-04-06T04:55:26.930Z,25.40
2019-04-06T04:57:55.049Z,24.50
2019-04-06T05:00:23.219Z,24.70
2019-04-06T05:02:51.379Z,24.63
2019-04-06T05:05:19.514Z,25.57
2019-04-06T05:07:47.628Z,23.40
2019-04-06T05:10:16.053Z,23.87
2019-04-06T05:12:44.192Z,23.10
2019-04-06T05:15:13.596Z,22.90
2019-04-06T05:17:41.721Z,21.10
2019-04-06T05:20:09.900Z,22.10
2019-04-06T05:22:38.037Z,22.63
2019-04-06T05:25:07.136Z,23.10
2019-04-06T05:27:35.265Z,23.47
2019-04-06T05:30:04.644Z,24.53
2019-04-06T05:32:32.800Z,24.37
2019-04-06T05:35:00.905Z,25.27
2019-04-06T05:37:29.278Z,26.70
2019-04-06T05:39:57.434Z,25.87
2019-04-06T05:42:25.575Z,27.07
2019-04-06T05:44:53.684Z,24.93
2019-04-06T05:47:21.824Z,25.67
2019-04-06T05:49:49.946Z,26.00
2019-04-06T05:52:18.187Z,25.73
2019-04-06T05:54:46.291Z,25.07
2019-04-06T05:57:14.421Z,24.50
2019-04-06T05:59:42.683Z,25.00
2019-04-06T06:02:10.833Z,25.23
2019-04-06T06:04:40.568Z,25.20
2019-04-06T06:07:09.028Z,25.30
2019-04-06T06:09:37.220Z,24.80
2019-04-06T06:12:05.413Z,26.63
2019-04-06T06:14:33.536Z,26.03
2019-04-06T06:17:01.692Z,23.83
2019-04-06T06:19:29.802Z,23.83
2019-04-06T06:21:57.941Z,24.03
2019-04-06T06:24:26.054Z,23.57
2019-04-06T06:26:54.184Z,21.50
2019-04-06T06:29:22.299Z,21.77
2019-04-06T06:31:50.526Z,22.13
2019-04-06T06:34:18.640Z,21.33
2019-04-06T06:36:46.757Z,21.60
2019-04-06T06:39:15.053Z,22.50
2019-04-06T06:41:43.197Z,24.23
2019-04-06T06:44:11.303Z,22.57
2019-04-06T06:46:39.442Z,21.70
2019-04-06T06:49:07.556Z,20.63
2019-04-06T06:51:35.855Z,20.13
2019-04-06T06:54:04.014Z,20.43
2019-04-06T06:56:32.181Z,20.97
2019-04-06T06:59:00.353Z,21.90
2019-04-06T07:01:28.549Z,22.73
2019-04-06T07:03:56.687Z,21.63
2019-04-06T07:06:24.823Z,23.80
2019-04-06T07:08:52.935Z,22.30
2019-04-06T07:11:21.069Z,22.43
2019-04-06T07:13:49.189Z,23.23
2019-04-06T07:16:17.317Z,22.17
2019-04-06T07:18:45.450Z,23.10
2019-04-06T08:00:34.504Z,23.50
2019-04-06T08:03:02.752Z,23.10
2019-04-06T08:05:30.862Z,24.43
2019-04-06T08:07:58.988Z,25.23
2019-04-06T11:25:07.418Z,23.10
2019-04-06T11:27:40.094Z,23.20
2019-04-06T11:30:14.235Z,21.57
2019-04-06T11:32:42.898Z,21.53
2019-04-06T11:35:15.386Z,18.10
2019-04-06T11:53:20.942Z,17.13
